Home > Products > Valid Products > TAF

000
FTPA31 PHFO 260500
TAFHNL
TAF
PHNL 260520Z 2606/2712 06008KT P6SM SCT025 BKN050
     FM262100 06015KT P6SM SCT025 BKN050
     FM270600 06008KT P6SM SCT025 BKN050=



000
FTPA31 PHFO 260500
TAFHNL
TAF
PHNL 260520Z 2606/2712 06008KT P6SM SCT025 BKN050
     FM262100 06015KT P6SM SCT025 BKN050
     FM270600 06008KT P6SM SCT025 BKN050=



000
FTPA31 PHFO 260300 AAB
TAFHNL
TAF AMD
PHNL 260305Z 2603/2706 06012G18KT P6SM SCT025 BKN045
     FM260500 06008KT P6SM SCT025 BKN045
     FM262000 06012G18KT P6SM SCT025 SCT050
     FM270500 06008KT P6SM SCT025 SCT050=



000
FTPA31 PHFO 260000 AAA
TAFHNL
TAF AMD
PHNL 260059Z 2601/2706 06012G18KT P6SM SCT025 BKN045
     FM260500 06008KT P6SM SCT025 BKN045
     FM262000 06012G18KT P6SM SCT025 SCT050
     FM270500 06008KT P6SM SCT025 SCT050=



000
FTPA31 PHFO 252300
TAFHNL
TAF
PHNL 252327Z 2600/2706 06008G15KT P6SM SCT025 BKN045
     FM260500 06008KT P6SM SCT025 BKN045
     FM262000 06012G18KT P6SM SCT025 SCT050
     FM270500 06008KT P6SM SCT025 SCT050=



000
FTPA31 PHFO 252100 AAA
TAFHNL
TAF AMD
PHNL 252107Z 2521/2624 14009KT P6SM VCSH SCT025 BKN040
     FM252300 09011G18KT P6SM FEW030 SCT050
     FM260500 06008KT P6SM FEW025 SCT045
     FM262000 08012G18KT P6SM SCT025 BKN040=



000
FTPA31 PHFO 251700
TAFHNL
TAF
PHNL 251731Z 2518/2624 07008KT P6SM FEW025 SCT045
     FM252100 09011G18KT P6SM FEW030 SCT050
     FM260500 06008KT P6SM FEW025 SCT045
     FM262000 08012G18KT P6SM SCT025 BKN040=



000
FTPA31 PHFO 251500 AAA
TAFHNL
TAF AMD
PHNL 251513Z 2515/2618 07008KT P6SM FEW025 SCT045
     FM252100 10010KT P6SM FEW030 SCT050
     FM260500 06008KT P6SM FEW025 SCT045
     FM260900 05006KT P6SM VCSH SCT025 BKN040=



000
FTPA31 PHFO 251100
TAFHNL
TAF
PHNL 251126Z 2512/2618 07008KT P6SM FEW025 SCT045
     FM252100 10010KT P6SM FEW030 SCT050
     FM260500 06008KT P6SM FEW025 SCT045
     FM260900 05006KT P6SM VCSH SCT025 BKN040=



000
FTPA31 PHFO 251100
TAFHNL
TAF
PHNL 251126Z 2512/2618 07008KT P6SM FEW025 SCT045
     FM252100 10010KT P6SM FEW030 SCT050
     FM260500 06008KT P6SM FEW025 SCT045
     FM260900 05006KT P6SM VCSH SCT025 BKN040=



000
FTPA31 PHFO 250900 AAA
TAFHNL
TAF AMD
PHNL 250905Z 2509/2612 07008KT P6SM FEW025 SCT045
     FM252100 10010KT P6SM FEW030 SCT050
     FM260500 06008KT P6SM FEW025 SCT045
     FM260900 05006KT P6SM VCSH SCT025 BKN040=



000
FTPA31 PHFO 250500
TAFHNL
TAF
PHNL 250537Z 2506/2612 07008KT P6SM FEW025 SCT045
     FM252100 10010KT P6SM FEW030 SCT050
     FM260500 06008KT P6SM FEW025 SCT045
     FM260900 05006KT P6SM VCSH SCT025 BKN040=



000
FTPA31 PHFO 250300 AAA
TAFHNL
TAF AMD
PHNL 250308Z 2503/2606 07013G19KT P6SM FEW025 SCT045
     FM250500 04009KT P6SM FEW025 SCT045
     FM252100 10009KT P6SM FEW030 SCT050
     FM260500 06006KT P6SM FEW025 SCT045=



000
FTPA31 PHFO 242300
TAFHNL
TAF
PHNL 242338Z 2500/2606 07012G18KT P6SM FEW025 SCT045
     FM250500 04005KT P6SM FEW025 SCT045
     FM252100 10008KT P6SM FEW030 SCT050
     FM260400 06006KT P6SM FEW025 SCT045=



000
FTPA31 PHFO 242200 AAB
TAFHNL
TAF AMD
PHNL 242238Z 2423/2524 07011G17KT P6SM FEW030 SCT050
     FM250500 04005KT P6SM FEW025 SCT045
     FM252000 11010KT P6SM FEW030 SCT050=



000
FTPA31 PHFO 242000 AAA
TAFHNL
TAF AMD
PHNL 242010Z 2420/2524 08009KT P6SM FEW025 SCT045
     FM242100 09011G17KT P6SM FEW030 SCT050
     FM250500 04005KT P6SM FEW025 SCT045
     FM252000 11010KT P6SM FEW030 SCT050=



000
FTPA31 PHFO 241700
TAFHNL
TAF
PHNL 241735Z 2418/2524 03006KT P6SM FEW025 SCT045
     FM242000 07012G18KT P6SM FEW030 SCT050
     FM250500 04005KT P6SM FEW025 SCT045
     FM252000 11010KT P6SM FEW030 SCT050=



000
FTPA31 PHFO 241400 AAA
TAFHNL
TAF AMD
PHNL 241436Z 2415/2518 VRB05KT P6SM FEW025 SCT045
     FM242000 07013G20KT P6SM FEW030 SCT050
     FM250500 06008KT P6SM FEW025 SCT045=



000
FTPA31 PHFO 241400 AAA
TAFHNL
TAF AMD
PHNL 241436Z 2415/2518 VRB05KT P6SM FEW025 SCT045
     FM242000 07013G20KT P6SM FEW030 SCT050
     FM250500 06008KT P6SM FEW025 SCT045=



000
FTPA31 PHFO 241100
TAFHNL
TAF
PHNL 241120Z 2412/2518 06007KT P6SM FEW025 SCT040 BKN050
     FM242000 07013G20KT P6SM FEW030 SCT045
     FM250500 06008KT P6SM FEW025 SCT045=



000
FTPA31 PHFO 240800 AAA
TAFHNL
TAF AMD
PHNL 240834Z 2409/2512 04008KT P6SM FEW025 SCT035 SCT050
     FM242000 07013G20KT P6SM FEW030 SCT045
     FM250500 06008KT P6SM FEW025 SCT045=



000
FTPA31 PHFO 240500
TAFHNL
TAF
PHNL 240520Z 2406/2512 06009KT P6SM FEW025 SCT045
     FM242000 07013G20KT P6SM FEW030 SCT045
     FM250500 06008KT P6SM FEW025 SCT045=



000
FTPA31 PHFO 240300 AAA
TAFHNL
TAF AMD
PHNL 240305Z 2403/2506 07010G15KT P6SM FEW030 SCT045
     FM240500 05008KT P6SM FEW025 SCT045
     FM242000 07013G19KT P6SM FEW030 SCT045
     FM250500 05008KT P6SM FEW025 SCT045=



000
FTPA31 PHFO 240300 AAA
TAFHNL
TAF AMD
PHNL 240305Z 2403/2506 07010G15KT P6SM FEW030 SCT045
     FM240500 05008KT P6SM FEW025 SCT045
     FM242000 07013G19KT P6SM FEW030 SCT045
     FM250500 05008KT P6SM FEW025 SCT045=



000
FTPA31 PHFO 232300
TAFHNL
TAF
PHNL 232337Z 2400/2506 07013G19KT P6SM FEW030 SCT045
     FM240500 05008KT P6SM FEW025 SCT045
     FM242000 07013G19KT P6SM FEW030 SCT045
     FM250500 05008KT P6SM FEW025 SCT045=



000
FTPA31 PHFO 232200 AAB
TAFHNL
TAF AMD
PHNL 232208Z 2322/2424 06012G18KT P6SM FEW030 SCT050
     FM240500 05008KT P6SM SCT025 SCT045
     FM242000 07013G19KT P6SM FEW030 SCT050=



000
FTPA31 PHFO 232100 AAA
TAFHNL
TAF AMD
PHNL 232105Z 2321/2424 06012KT P6SM FEW030 SCT050
     FM240500 05008KT P6SM SCT025 SCT045
     FM242000 07013G19KT P6SM FEW030 SCT050=



000
FTPA31 PHFO 231700
TAFHNL
TAF
PHNL 231736Z 2318/2424 VRB03KT P6SM VCSH FEW030 SCT050
     FM232000 06011G17KT P6SM FEW030 SCT050
     FM240500 05008KT P6SM SCT025 SCT045
     FM242000 07013G19KT P6SM FEW030 SCT050=



000
FTPA31 PHFO 231500 AAA
TAFHNL
TAF AMD
PHNL 231508Z 2315/2418 VRB03KT P6SM VCSH FEW025 SCT035 BKN050
     FM232000 07011G18KT P6SM FEW030 SCT050
     FM240500 06009KT P6SM SCT025 SCT040=



000
FTPA31 PHFO 231100 RRA
TAFHNL
TAF
PHNL 231148Z 2312/2418 VRB03KT P6SM VCSH SCT025 SCT035 BKN050
     FM232000 07011G18KT P6SM FEW030 SCT050
     FM240500 06009KT P6SM SCT025 SCT040=



    US Dept of Commerce
    National Oceanic and Atmospheric Administration
    National Weather Service
    1325 East West Highway
    Silver Spring, MD 20910
    Page Author: NWS Internet Services Team
Disclaimer
Information Quality
Credits
Glossary
Privacy Policy
Freedom of Information Act (FOIA)
About Us
Career Opportunities